Kotor — J8B5064 — position and weather

sailwx.info

Track history (hours):
 
Tides and Currents Weather Stations Pressure Air Temp Water Temp Dewpoint Dewpoint Depression Visibility Wind Speed Wind Dir Waves Ship Positions

Kotor

Last reported at 2017-Nov-28 09:19 UTC. Time now 2017-Dec-14 02:30 UTC.
Position N 37°48' W 009°51'.
Warning: this ship's position is 15 days out of date.

Length 180 m; draft 7.7 m.

Type: Cargo ship. MMSI: 375074000.

Date/timePositionNaut miles runAvg speedWind from/ knotsBaromVisibWave heightAir tempDewpointWater temp
2017-Nov-28 09:19N 37°48' W 009°51'711.8
2017-Nov-28 08:43N 37°55' W 009°53'211.8
2017-Nov-28 08:31N 37°57' W 009°53'611.9
2017-Nov-28 08:00N 38°03' W 009°55'1811.9
2017-Nov-28 06:31N 38°20' W 010°00'111.9
2017-Nov-28 06:28N 38°21' W 010°00'612.0
2017-Nov-28 06:00N 38°26' W 010°02'1112.4
2017-Nov-28 05:06N 38°37' W 010°05'812.5
2017-Nov-28 04:27N 38°45' W 010°06'512.3
2017-Nov-28 04:00N 38°51' W 010°06'612.2
2017-Nov-28 03:30N 38°57' W 010°06'612.5
2017-Nov-28 03:00N 39°03' W 010°06'612.7
2017-Nov-28 02:30N 39°09' W 010°06'  
2017-Nov-25 15:01N 49°51' W 003°17'012.4
2017-Nov-25 15:01N 49°51' W 003°17'712.0
2017-Nov-25 14:25N 49°54' W 003°07'511.7
2017-Nov-25 14:01N 49°57' W 003°01'611.2
2017-Nov-25 13:30N 49°59' W 002°53'510.9
2017-Nov-25 13:00N 50°00' W 002°45'510.5
2017-Nov-25 12:30N 50°01' W 002°37'17 9.8
2017-Nov-25 10:44N 50°06' W 002°10'3 9.6
2017-Nov-25 10:24N 50°06' W 002°06'4 9.8
2017-Nov-25 10:00N 50°08' W 001°60'510.3
2017-Nov-25 09:30N 50°09' W 001°52'510.8
2017-Nov-25 09:01N 50°10' W 001°44'611.4
2017-Nov-25 08:30N 50°12' W 001°35'612.1
2017-Nov-25 08:01N 50°14' W 001°27'712.8
2017-Nov-25 07:28N 50°16' W 001°16'3113.8
2017-Nov-25 05:13N 50°25' W 000°29'313.7
2017-Nov-25 05:00N 50°25' W 000°25'713.4
2017-Nov-25 04:30N 50°27' W 000°15'713.2
2017-Nov-25 04:00N 50°29' W 000°05'713.0
2017-Nov-25 03:30N 50°31' E 000°05'612.8
2017-Nov-25 03:00N 50°33' E 000°15'612.5
2017-Nov-25 02:30N 50°34' E 000°24'612.2
2017-Nov-25 02:00N 50°36' E 000°33'611.8
2017-Nov-25 01:30N 50°39' E 000°41'612.0
2017-Nov-25 01:00N 50°43' E 000°49'612.1
2017-Nov-25 00:30N 50°46' E 000°57'612.5
2017-Nov-25 00:00N 50°50' E 001°05'713.1
2017-Nov-24 23:30N 50°53' E 001°13'714.2
2017-Nov-24 23:00N 50°58' E 001°22'715.0
2017-Nov-24 22:31N 51°03' E 001°31'612.8
2017-Nov-24 22:00N 51°06' E 001°39'611.7
2017-Nov-24 21:30N 51°02' E 001°47'713.3
2017-Nov-24 21:00N 51°03' E 001°57'713.6
2017-Nov-24 20:30N 51°03' E 002°08'713.5
2017-Nov-24 20:00N 51°04' E 002°19'1 1.9
2017-Nov-24 19:24N 51°03' E 002°20'0 0.2
2017-Nov-24 18:56N 51°03' E 002°20'2 3.4
2017-Nov-24 18:29N 51°03' E 002°18'1 1.3
2017-Nov-24 17:46N 51°03' E 002°16'0 0.0
2017-Nov-24 17:28N 51°03' E 002°16'0 0.0
2017-Nov-24 16:07N 51°03' E 002°16'0 0.0
2017-Nov-24 15:58N 51°03' E 002°16'0 0.0
2017-Nov-24 15:25N 51°03' E 002°16'0 0.0
2017-Nov-24 14:46N 51°03' E 002°16'0 0.0
2017-Nov-24 14:25N 51°03' E 002°16'0 0.0
2017-Nov-24 13:58N 51°03' E 002°16'0 0.0
2017-Nov-24 13:25N 51°03' E 002°16'0 0.0
2017-Nov-24 12:58N 51°03' E 002°16'0 0.0
2017-Nov-24 12:10N 51°03' E 002°16'0 0.0
2017-Nov-24 11:58N 51°03' E 002°16'0 0.0
2017-Nov-24 11:25N 51°03' E 002°16'0 0.0
2017-Nov-24 10:55N 51°03' E 002°16'0 0.0
2017-Nov-24 10:25N 51°03' E 002°16'0 0.0
2017-Nov-24 09:46N 51°03' E 002°16'0 0.0
2017-Nov-24 09:25N 51°03' E 002°16'0 0.0
2017-Nov-24 08:58N 51°03' E 002°16'0 0.0
2017-Nov-24 08:28N 51°03' E 002°16'0 0.0
2017-Nov-24 07:58N 51°03' E 002°16'0 0.0
2017-Nov-24 07:25N 51°03' E 002°16'0 0.0
2017-Nov-24 06:58N 51°03' E 002°16'0 0.0
2017-Nov-24 06:25N 51°03' E 002°16'0 0.0
2017-Nov-24 05:58N 51°03' E 002°16'0 0.0
2017-Nov-24 05:28N 51°03' E 002°16'0 0.0
2017-Nov-24 04:58N 51°03' E 002°16'0 0.0
2017-Nov-24 03:43N 51°03' E 002°16'0 0.0
2017-Nov-24 03:28N 51°03' E 002°16'0 0.0
2017-Nov-24 02:55N 51°03' E 002°16'0 0.0
2017-Nov-24 02:22N 51°03' E 002°16'0 0.0
2017-Nov-24 01:58N 51°03' E 002°16'0 0.0
2017-Nov-24 01:07N 51°03' E 002°16'0 0.0
2017-Nov-24 00:52N 51°03' E 002°16'0 0.0
2017-Nov-24 00:28N 51°03' E 002°16'0 0.0
2017-Nov-23 23:49N 51°03' E 002°16'0 0.0
2017-Nov-23 23:22N 51°03' E 002°16'0 0.0
2017-Nov-23 22:55N 51°03' E 002°16'0 0.0
2017-Nov-23 22:22N 51°03' E 002°16'0 0.0
2017-Nov-23 21:22N 51°03' E 002°16'0 0.0
2017-Nov-23 20:01N 51°03' E 002°16'0 0.0
2017-Nov-23 19:55N 51°03' E 002°16'0 0.0
2017-Nov-23 19:22N 51°03' E 002°16'0 0.0
2017-Nov-23 18:34N 51°03' E 002°16'0 0.1
2017-Nov-23 18:28N 51°03' E 002°16'0 0.0
2017-Nov-23 17:52N 51°03' E 002°16'0 0.0
2017-Nov-23 17:25N 51°03' E 002°16'0 0.0
2017-Nov-23 16:58N 51°03' E 002°16'0 0.0
2017-Nov-23 16:25N 51°03' E 002°16'0 0.0
2017-Nov-23 15:58N 51°03' E 002°16'0 0.0
2017-Nov-23 14:52N 51°03' E 002°16'0 0.0
2017-Nov-23 14:13N 51°03' E 002°16'0 0.0
2017-Nov-23 13:58N 51°03' E 002°16'0 0.0
2017-Nov-23 13:25N 51°03' E 002°16'0 0.0
2017-Nov-23 12:46N 51°03' E 002°16'0 0.0
2017-Nov-23 12:28N 51°03' E 002°16'0 0.0
2017-Nov-23 11:58N 51°03' E 002°16'0 0.0
2017-Nov-23 11:28N 51°03' E 002°16'0 0.0
2017-Nov-23 10:43N 51°03' E 002°16'0 0.0
2017-Nov-23 10:22N 51°03' E 002°16'0 0.0
2017-Nov-23 09:58N 51°03' E 002°16'0 0.0
2017-Nov-23 09:25N 51°03' E 002°16'0 0.0
2017-Nov-23 08:55N 51°03' E 002°16'0 0.0
2017-Nov-23 08:28N 51°03' E 002°16'0 0.0
2017-Nov-23 07:58N 51°03' E 002°16'0 0.0
2017-Nov-23 07:19N 51°03' E 002°16'0 0.0
2017-Nov-23 06:58N 51°03' E 002°16'0 0.0
2017-Nov-23 06:19N 51°03' E 002°16'0 0.0
2017-Nov-23 05:34N 51°03' E 002°16'0 0.0
2017-Nov-23 05:25N 51°03' E 002°16'0 0.0
2017-Nov-23 04:49N 51°03' E 002°16'0 0.0
2017-Nov-23 04:28N 51°03' E 002°16'0 0.0
2017-Nov-23 03:58N 51°03' E 002°16'0 0.0
2017-Nov-23 03:25N 51°03' E 002°16'0 0.0
2017-Nov-23 02:58N 51°03' E 002°16'0 0.0
2017-Nov-23 02:28N 51°03' E 002°16'0 0.0
2017-Nov-23 01:43N 51°03' E 002°16'0 0.0
2017-Nov-23 01:22N 51°03' E 002°16'0 0.0
2017-Nov-23 00:46N 51°03' E 002°16'0 0.0
2017-Nov-23 00:10N 51°03' E 002°16'0 0.0
2017-Nov-22 23:58N 51°03' E 002°16'0 0.0
2017-Nov-22 23:28N 51°03' E 002°16'0 0.0
2017-Nov-22 22:58N 51°03' E 002°16'0 0.0
2017-Nov-22 22:25N 51°03' E 002°16'0 0.0
2017-Nov-22 21:55N 51°03' E 002°16'0 0.0
2017-Nov-22 21:28N 51°03' E 002°16'0 0.0
2017-Nov-22 20:58N 51°03' E 002°16'0 0.0
2017-Nov-22 20:28N 51°03' E 002°16'0 0.0
2017-Nov-22 19:58N 51°03' E 002°16'0 0.0
2017-Nov-22 19:10N 51°03' E 002°16'  
2017-Nov-20 00:23N 47°44' W 006°27'614.0
2017-Nov-19 23:58N 47°39' W 006°31'1513.2
2017-Nov-19 22:50N 47°25' W 006°41'512.9
2017-Nov-19 22:29N 47°21' W 006°44'713.3
2017-Nov-19 21:59N 47°16' W 006°49'1413.6
2017-Nov-19 20:55N 47°03' W 006°59'16013.0
2017-Nov-19 08:37N 44°41' W 008°44'112.4
2017-Nov-19 08:30N 44°39' W 008°44'1212.4
2017-Nov-19 07:32N 44°28' W 008°52'1812.2
2017-Nov-19 06:05N 44°13' W 009°04'25312.4
2017-Nov-18 09:43N 40°03' W 009°50'  
Track history (hours):
 
Tides and Currents Weather Stations Pressure Air Temp Water Temp Dewpoint Dewpoint Depression Visibility Wind Speed Wind Dir Waves Ship Positions

Kotor

Last reported at 2017-Nov-28 09:19 UTC. Time now 2017-Dec-14 02:30 UTC.
Position N 37°48' W 009°51'.
Warning: this ship's position is 15 days out of date.

Length 180 m; draft 7.7 m.

Type: Cargo ship. MMSI: 375074000.

Date/timePositionNaut miles runAvg speedWind from/ knotsBaromVisibWave heightAir tempDewpointWater temp
2017-Nov-28 09:19N 37°48' W 009°51'711.8
2017-Nov-28 08:43N 37°55' W 009°53'211.8
2017-Nov-28 08:31N 37°57' W 009°53'611.9
2017-Nov-28 08:00N 38°03' W 009°55'1811.9
2017-Nov-28 06:31N 38°20' W 010°00'111.9
2017-Nov-28 06:28N 38°21' W 010°00'612.0
2017-Nov-28 06:00N 38°26' W 010°02'1112.4
2017-Nov-28 05:06N 38°37' W 010°05'812.5
2017-Nov-28 04:27N 38°45' W 010°06'512.3
2017-Nov-28 04:00N 38°51' W 010°06'612.2
2017-Nov-28 03:30N 38°57' W 010°06'612.5
2017-Nov-28 03:00N 39°03' W 010°06'612.7
2017-Nov-28 02:30N 39°09' W 010°06'  
2017-Nov-25 15:01N 49°51' W 003°17'012.4
2017-Nov-25 15:01N 49°51' W 003°17'712.0
2017-Nov-25 14:25N 49°54' W 003°07'511.7
2017-Nov-25 14:01N 49°57' W 003°01'611.2
2017-Nov-25 13:30N 49°59' W 002°53'510.9
2017-Nov-25 13:00N 50°00' W 002°45'510.5
2017-Nov-25 12:30N 50°01' W 002°37'17 9.8
2017-Nov-25 10:44N 50°06' W 002°10'3 9.6
2017-Nov-25 10:24N 50°06' W 002°06'4 9.8
2017-Nov-25 10:00N 50°08' W 001°60'510.3
2017-Nov-25 09:30N 50°09' W 001°52'510.8
2017-Nov-25 09:01N 50°10' W 001°44'611.4
2017-Nov-25 08:30N 50°12' W 001°35'612.1
2017-Nov-25 08:01N 50°14' W 001°27'712.8
2017-Nov-25 07:28N 50°16' W 001°16'3113.8
2017-Nov-25 05:13N 50°25' W 000°29'313.7
2017-Nov-25 05:00N 50°25' W 000°25'713.4
2017-Nov-25 04:30N 50°27' W 000°15'713.2
2017-Nov-25 04:00N 50°29' W 000°05'713.0
2017-Nov-25 03:30N 50°31' E 000°05'612.8
2017-Nov-25 03:00N 50°33' E 000°15'612.5
2017-Nov-25 02:30N 50°34' E 000°24'612.2
2017-Nov-25 02:00N 50°36' E 000°33'611.8
2017-Nov-25 01:30N 50°39' E 000°41'612.0
2017-Nov-25 01:00N 50°43' E 000°49'612.1
2017-Nov-25 00:30N 50°46' E 000°57'612.5
2017-Nov-25 00:00N 50°50' E 001°05'713.1
2017-Nov-24 23:30N 50°53' E 001°13'714.2
2017-Nov-24 23:00N 50°58' E 001°22'715.0
2017-Nov-24 22:31N 51°03' E 001°31'612.8
2017-Nov-24 22:00N 51°06' E 001°39'611.7
2017-Nov-24 21:30N 51°02' E 001°47'713.3
2017-Nov-24 21:00N 51°03' E 001°57'713.6
2017-Nov-24 20:30N 51°03' E 002°08'713.5
2017-Nov-24 20:00N 51°04' E 002°19'1 1.9
2017-Nov-24 19:24N 51°03' E 002°20'0 0.2
2017-Nov-24 18:56N 51°03' E 002°20'2 3.4
2017-Nov-24 18:29N 51°03' E 002°18'1 1.3
2017-Nov-24 17:46N 51°03' E 002°16'0 0.0
2017-Nov-24 17:28N 51°03' E 002°16'0 0.0
2017-Nov-24 16:07N 51°03' E 002°16'0 0.0
2017-Nov-24 15:58N 51°03' E 002°16'0 0.0
2017-Nov-24 15:25N 51°03' E 002°16'0 0.0
2017-Nov-24 14:46N 51°03' E 002°16'0 0.0
2017-Nov-24 14:25N 51°03' E 002°16'0 0.0
2017-Nov-24 13:58N 51°03' E 002°16'0 0.0
2017-Nov-24 13:25N 51°03' E 002°16'0 0.0
2017-Nov-24 12:58N 51°03' E 002°16'0 0.0
2017-Nov-24 12:10N 51°03' E 002°16'0 0.0
2017-Nov-24 11:58N 51°03' E 002°16'0 0.0
2017-Nov-24 11:25N 51°03' E 002°16'0 0.0
2017-Nov-24 10:55N 51°03' E 002°16'0 0.0
2017-Nov-24 10:25N 51°03' E 002°16'0 0.0
2017-Nov-24 09:46N 51°03' E 002°16'0 0.0
2017-Nov-24 09:25N 51°03' E 002°16'0 0.0
2017-Nov-24 08:58N 51°03' E 002°16'0 0.0
2017-Nov-24 08:28N 51°03' E 002°16'0 0.0
2017-Nov-24 07:58N 51°03' E 002°16'0 0.0
2017-Nov-24 07:25N 51°03' E 002°16'0 0.0
2017-Nov-24 06:58N 51°03' E 002°16'0 0.0
2017-Nov-24 06:25N 51°03' E 002°16'0 0.0
2017-Nov-24 05:58N 51°03' E 002°16'0 0.0
2017-Nov-24 05:28N 51°03' E 002°16'0 0.0
2017-Nov-24 04:58N 51°03' E 002°16'0 0.0
2017-Nov-24 03:43N 51°03' E 002°16'0 0.0
2017-Nov-24 03:28N 51°03' E 002°16'0 0.0
2017-Nov-24 02:55N 51°03' E 002°16'0 0.0
2017-Nov-24 02:22N 51°03' E 002°16'0 0.0
2017-Nov-24 01:58N 51°03' E 002°16'0 0.0
2017-Nov-24 01:07N 51°03' E 002°16'0 0.0
2017-Nov-24 00:52N 51°03' E 002°16'0 0.0
2017-Nov-24 00:28N 51°03' E 002°16'0 0.0
2017-Nov-23 23:49N 51°03' E 002°16'0 0.0
2017-Nov-23 23:22N 51°03' E 002°16'0 0.0
2017-Nov-23 22:55N 51°03' E 002°16'0 0.0
2017-Nov-23 22:22N 51°03' E 002°16'0 0.0
2017-Nov-23 21:22N 51°03' E 002°16'0 0.0
2017-Nov-23 20:01N 51°03' E 002°16'0 0.0
2017-Nov-23 19:55N 51°03' E 002°16'0 0.0
2017-Nov-23 19:22N 51°03' E 002°16'0 0.0
2017-Nov-23 18:34N 51°03' E 002°16'0 0.1
2017-Nov-23 18:28N 51°03' E 002°16'0 0.0
2017-Nov-23 17:52N 51°03' E 002°16'0 0.0
2017-Nov-23 17:25N 51°03' E 002°16'0 0.0
2017-Nov-23 16:58N 51°03' E 002°16'0 0.0
2017-Nov-23 16:25N 51°03' E 002°16'0 0.0
2017-Nov-23 15:58N 51°03' E 002°16'0 0.0
2017-Nov-23 14:52N 51°03' E 002°16'0 0.0
2017-Nov-23 14:13N 51°03' E 002°16'0 0.0
2017-Nov-23 13:58N 51°03' E 002°16'0 0.0
2017-Nov-23 13:25N 51°03' E 002°16'0 0.0
2017-Nov-23 12:46N 51°03' E 002°16'0 0.0
2017-Nov-23 12:28N 51°03' E 002°16'0 0.0
2017-Nov-23 11:58N 51°03' E 002°16'0 0.0
2017-Nov-23 11:28N 51°03' E 002°16'0 0.0
2017-Nov-23 10:43N 51°03' E 002°16'0 0.0
2017-Nov-23 10:22N 51°03' E 002°16'0 0.0
2017-Nov-23 09:58N 51°03' E 002°16'0 0.0
2017-Nov-23 09:25N 51°03' E 002°16'0 0.0
2017-Nov-23 08:55N 51°03' E 002°16'0 0.0
2017-Nov-23 08:28N 51°03' E 002°16'0 0.0
2017-Nov-23 07:58N 51°03' E 002°16'0 0.0
2017-Nov-23 07:19N 51°03' E 002°16'0 0.0
2017-Nov-23 06:58N 51°03' E 002°16'0 0.0
2017-Nov-23 06:19N 51°03' E 002°16'0 0.0
2017-Nov-23 05:34N 51°03' E 002°16'0 0.0
2017-Nov-23 05:25N 51°03' E 002°16'0 0.0
2017-Nov-23 04:49N 51°03' E 002°16'0 0.0
2017-Nov-23 04:28N 51°03' E 002°16'0 0.0
2017-Nov-23 03:58N 51°03' E 002°16'0 0.0
2017-Nov-23 03:25N 51°03' E 002°16'0 0.0
2017-Nov-23 02:58N 51°03' E 002°16'0 0.0
2017-Nov-23 02:28N 51°03' E 002°16'0 0.0
2017-Nov-23 01:43N 51°03' E 002°16'0 0.0
2017-Nov-23 01:22N 51°03' E 002°16'0 0.0
2017-Nov-23 00:46N 51°03' E 002°16'0 0.0
2017-Nov-23 00:10N 51°03' E 002°16'0 0.0
2017-Nov-22 23:58N 51°03' E 002°16'0 0.0
2017-Nov-22 23:28N 51°03' E 002°16'0 0.0
2017-Nov-22 22:58N 51°03' E 002°16'0 0.0
2017-Nov-22 22:25N 51°03' E 002°16'0 0.0
2017-Nov-22 21:55N 51°03' E 002°16'0 0.0
2017-Nov-22 21:28N 51°03' E 002°16'0 0.0
2017-Nov-22 20:58N 51°03' E 002°16'0 0.0
2017-Nov-22 20:28N 51°03' E 002°16'0 0.0
2017-Nov-22 19:58N 51°03' E 002°16'0 0.0
2017-Nov-22 19:10N 51°03' E 002°16'  
2017-Nov-20 00:23N 47°44' W 006°27'614.0
2017-Nov-19 23:58N 47°39' W 006°31'1513.2
2017-Nov-19 22:50N 47°25' W 006°41'512.9
2017-Nov-19 22:29N 47°21' W 006°44'713.3
2017-Nov-19 21:59N 47°16' W 006°49'1413.6
2017-Nov-19 20:55N 47°03' W 006°59'16013.0
2017-Nov-19 08:37N 44°41' W 008°44'112.4
2017-Nov-19 08:30N 44°39' W 008°44'1212.4
2017-Nov-19 07:32N 44°28' W 008°52'1812.2
2017-Nov-19 06:05N 44°13' W 009°04'25312.4
2017-Nov-18 09:43N 40°03' W 009°50'  

Dump ship's entire track history